Terminal Aerodrome Forecast
Issued by NWS

Home | Current Version | Previous Version | Text Only | Print | Product List | Glossary On
Versions: 1 2 3 4 5 6 7 8 9 10 11 12 13 14 15 16 17 18
000
FTUS44 KOUN 251136
TAFGAG
TAF
KGAG 251136Z 2512/2612 23012KT P6SM FEW250
      TEMPO 2512/2514 4SM BR
     FM252000 34011KT P6SM SCT120
     FM260600 18005KT P6SM SKC=

USA.gov is the U.S. government's official web portal to all federal, state and local government web resources and services.